sensor_id;sensor_type;location;lat;lon;timestamp;pressure;altitude;pressure_sealevel;temperature;humidity
10652;BME280;5374;42.742;23.266;2023-12-28T00:02:10;96563.63;;;3.72;100.00
10652;BME280;5374;42.742;23.266;2023-12-28T00:04:57;96573.69;;;3.68;100.00
10652;BME280;5374;42.742;23.266;2023-12-28T00:07:45;96563.06;;;3.62;100.00
10652;BME280;5374;42.742;23.266;2023-12-28T00:10:34;96564.69;;;3.63;100.00
10652;BME280;5374;42.742;23.266;2023-12-28T00:13:22;96572.56;;;3.63;100.00
10652;BME280;5374;42.742;23.266;2023-12-28T00:16:09;96561.06;;;3.49;100.00
10652;BME280;5374;42.742;23.266;2023-12-28T00:18:56;96579.09;;;3.52;100.00
10652;BME280;5374;42.742;23.266;2023-12-28T00:21:44;96576.06;;;3.40;100.00
10652;BME280;5374;42.742;23.266;2023-12-28T00:24:31;96573.25;;;3.42;100.00
10652;BME280;5374;42.742;23.266;2023-12-28T00:27:19;96587.31;;;3.49;100.00
10652;BME280;5374;42.742;23.266;2023-12-28T00:30:07;96581.41;;;3.47;100.00
10652;BME280;5374;42.742;23.266;2023-12-28T00:32:55;96582.22;;;3.48;100.00
10652;BME280;5374;42.742;23.266;2023-12-28T00:35:42;96585.38;;;3.43;100.00
10652;BME280;5374;42.742;23.266;2023-12-28T00:38:29;96549.38;;;3.14;100.00
10652;BME280;5374;42.742;23.266;2023-12-28T00:41:17;96595.31;;;3.33;100.00
10652;BME280;5374;42.742;23.266;2023-12-28T00:44:05;96586.13;;;3.37;100.00
10652;BME280;5374;42.742;23.266;2023-12-28T00:46:55;96600.06;;;3.37;100.00
10652;BME280;5374;42.742;23.266;2023-12-28T00:49:43;96593.56;;;3.25;100.00
10652;BME280;5374;42.742;23.266;2023-12-28T00:52:30;96566.38;;;2.95;100.00
10652;BME280;5374;42.742;23.266;2023-12-28T00:55:18;96594.63;;;3.16;100.00
10652;BME280;5374;42.742;23.266;2023-12-28T00:58:05;96596.97;;;3.11;100.00
10652;BME280;5374;42.742;23.266;2023-12-28T01:00:54;96603.84;;;3.12;100.00
10652;BME280;5374;42.742;23.266;2023-12-28T01:03:43;96600.28;;;3.05;100.00
10652;BME280;5374;42.742;23.266;2023-12-28T01:06:30;96603.88;;;3.04;100.00
10652;BME280;5374;42.742;23.266;2023-12-28T01:09:18;96591.19;;;2.93;100.00
10652;BME280;5374;42.742;23.266;2023-12-28T01:12:05;96610.75;;;3.05;100.00
10652;BME280;5374;42.742;23.266;2023-12-28T01:14:53;96583.03;;;2.80;100.00
10652;BME280;5374;42.742;23.266;2023-12-28T01:17:42;96623.59;;;3.00;100.00
10652;BME280;5374;42.742;23.266;2023-12-28T01:20:32;96607.53;;;2.95;100.00
10652;BME280;5374;42.742;23.266;2023-12-28T01:23:19;96608.34;;;2.95;100.00
10652;BME280;5374;42.742;23.266;2023-12-28T01:26:12;96584.19;;;2.77;100.00
10652;BME280;5374;42.742;23.266;2023-12-28T01:28:59;96575.19;;;2.80;100.00
10652;BME280;5374;42.742;23.266;2023-12-28T01:31:48;96602.25;;;3.03;100.00
10652;BME280;5374;42.742;23.266;2023-12-28T01:34:37;96602.66;;;2.92;100.00
10652;BME280;5374;42.742;23.266;2023-12-28T01:37:24;96597.75;;;2.89;100.00
10652;BME280;5374;42.742;23.266;2023-12-28T01:40:11;96612.78;;;2.95;100.00
10652;BME280;5374;42.742;23.266;2023-12-28T01:42:59;96552.03;;;2.60;100.00
10652;BME280;5374;42.742;23.266;2023-12-28T01:45:46;96603.09;;;2.95;100.00
10652;BME280;5374;42.742;23.266;2023-12-28T01:48:34;96605.91;;;2.94;100.00
10652;BME280;5374;42.742;23.266;2023-12-28T01:51:23;96594.78;;;2.92;100.00
10652;BME280;5374;42.742;23.266;2023-12-28T01:54:11;96598.47;;;2.74;100.00
10652;BME280;5374;42.742;23.266;2023-12-28T01:56:59;96596.78;;;2.90;100.00
10652;BME280;5374;42.742;23.266;2023-12-28T01:59:47;96631.22;;;2.87;100.00
10652;BME280;5374;42.742;23.266;2023-12-28T02:02:34;96595.50;;;2.78;100.00
10652;BME280;5374;42.742;23.266;2023-12-28T02:05:23;96597.22;;;2.70;100.00
10652;BME280;5374;42.742;23.266;2023-12-28T02:08:11;96596.34;;;2.78;100.00
10652;BME280;5374;42.742;23.266;2023-12-28T02:10:59;96615.19;;;2.73;100.00
10652;BME280;5374;42.742;23.266;2023-12-28T02:13:46;96597.38;;;2.69;100.00
10652;BME280;5374;42.742;23.266;2023-12-28T02:16:39;96588.06;;;2.58;100.00
10652;BME280;5374;42.742;23.266;2023-12-28T02:19:32;96601.66;;;2.62;100.00
10652;BME280;5374;42.742;23.266;2023-12-28T02:22:25;96600.84;;;2.61;100.00
10652;BME280;5374;42.742;23.266;2023-12-28T02:25:14;96603.47;;;2.61;100.00
10652;BME280;5374;42.742;23.266;2023-12-28T02:28:01;96596.28;;;2.55;100.00
10652;BME280;5374;42.742;23.266;2023-12-28T02:30:48;96602.81;;;2.59;100.00
10652;BME280;5374;42.742;23.266;2023-12-28T02:33:38;96510.41;;;1.95;100.00
10652;BME280;5374;42.742;23.266;2023-12-28T02:36:30;96578.19;;;2.37;100.00
10652;BME280;5374;42.742;23.266;2023-12-28T02:39:18;96576.38;;;2.38;100.00
10652;BME280;5374;42.742;23.266;2023-12-28T02:42:08;96580.69;;;2.23;100.00
10652;BME280;5374;42.742;23.266;2023-12-28T02:44:55;96590.31;;;2.38;100.00
10652;BME280;5374;42.742;23.266;2023-12-28T02:47:42;96581.84;;;2.20;100.00
10652;BME280;5374;42.742;23.266;2023-12-28T02:50:30;96593.81;;;2.15;100.00
10652;BME280;5374;42.742;23.266;2023-12-28T02:53:17;96603.41;;;2.30;100.00
10652;BME280;5374;42.742;23.266;2023-12-28T02:56:06;96595.72;;;2.29;100.00
10652;BME280;5374;42.742;23.266;2023-12-28T02:58:54;96531.69;;;1.92;100.00
10652;BME280;5374;42.742;23.266;2023-12-28T03:01:41;96526.63;;;1.83;100.00
10652;BME280;5374;42.742;23.266;2023-12-28T03:04:28;96583.00;;;2.26;100.00
10652;BME280;5374;42.742;23.266;2023-12-28T03:07:16;96527.09;;;1.86;100.00
10652;BME280;5374;42.742;23.266;2023-12-28T03:10:04;96526.97;;;1.80;100.00
10652;BME280;5374;42.742;23.266;2023-12-28T03:12:51;96586.59;;;2.17;100.00
10652;BME280;5374;42.742;23.266;2023-12-28T03:15:39;96576.13;;;2.17;100.00
10652;BME280;5374;42.742;23.266;2023-12-28T03:18:26;96526.16;;;1.79;100.00
10652;BME280;5374;42.742;23.266;2023-12-28T03:21:13;96576.13;;;2.17;100.00
10652;BME280;5374;42.742;23.266;2023-12-28T03:24:00;96559.13;;;2.04;100.00
10652;BME280;5374;42.742;23.266;2023-12-28T03:26:47;96568.78;;;2.04;100.00
10652;BME280;5374;42.742;23.266;2023-12-28T03:29:36;96577.28;;;2.14;100.00
10652;BME280;5374;42.742;23.266;2023-12-28T03:32:25;96582.03;;;2.11;100.00
10652;BME280;5374;42.742;23.266;2023-12-28T03:35:12;96582.69;;;2.13;100.00
10652;BME280;5374;42.742;23.266;2023-12-28T03:38:00;96526.50;;;1.76;100.00
10652;BME280;5374;42.742;23.266;2023-12-28T03:40:47;96590.06;;;2.09;100.00
10652;BME280;5374;42.742;23.266;2023-12-28T03:43:35;96588.25;;;2.10;100.00
10652;BME280;5374;42.742;23.266;2023-12-28T03:46:22;96592.03;;;2.07;100.00
10652;BME280;5374;42.742;23.266;2023-12-28T03:49:11;96608.72;;;2.06;100.00
10652;BME280;5374;42.742;23.266;2023-12-28T03:52:03;96595.19;;;2.02;100.00
10652;BME280;5374;42.742;23.266;2023-12-28T03:54:51;96601.25;;;2.03;100.00
10652;BME280;5374;42.742;23.266;2023-12-28T03:57:38;96599.59;;;2.02;100.00
10652;BME280;5374;42.742;23.266;2023-12-28T04:00:27;96602.38;;;2.00;100.00
10652;BME280;5374;42.742;23.266;2023-12-28T04:03:15;96597.16;;;2.00;100.00
10652;BME280;5374;42.742;23.266;2023-12-28T04:06:04;96614.19;;;1.96;100.00
10652;BME280;5374;42.742;23.266;2023-12-28T04:08:51;96606.31;;;1.88;100.00
10652;BME280;5374;42.742;23.266;2023-12-28T04:11:45;96594.56;;;1.76;100.00
10652;BME280;5374;42.742;23.266;2023-12-28T04:14:32;96614.50;;;1.85;100.00
10652;BME280;5374;42.742;23.266;2023-12-28T04:17:19;96603.25;;;1.77;100.00
10652;BME280;5374;42.742;23.266;2023-12-28T04:20:07;96597.50;;;1.81;100.00
10652;BME280;5374;42.742;23.266;2023-12-28T04:22:56;96615.16;;;1.87;100.00
10652;BME280;5374;42.742;23.266;2023-12-28T04:25:44;96608.78;;;1.82;100.00
10652;BME280;5374;42.742;23.266;2023-12-28T04:28:31;96621.06;;;1.89;100.00
10652;BME280;5374;42.742;23.266;2023-12-28T04:31:22;96618.09;;;1.92;100.00
10652;BME280;5374;42.742;23.266;2023-12-28T04:34:12;96609.44;;;1.92;100.00
10652;BME280;5374;42.742;23.266;2023-12-28T04:36:59;96605.81;;;1.93;100.00
10652;BME280;5374;42.742;23.266;2023-12-28T04:39:47;96613.03;;;1.91;100.00
10652;BME280;5374;42.742;23.266;2023-12-28T04:42:34;96607.63;;;1.92;100.00
10652;BME280;5374;42.742;23.266;2023-12-28T04:45:22;96597.50;;;1.81;100.00
10652;BME280;5374;42.742;23.266;2023-12-28T04:48:09;96595.19;;;1.86;100.00
10652;BME280;5374;42.742;23.266;2023-12-28T04:50:56;96599.44;;;1.95;100.00
10652;BME280;5374;42.742;23.266;2023-12-28T04:53:43;96595.69;;;1.90;100.00
10652;BME280;5374;42.742;23.266;2023-12-28T04:56:32;96601.91;;;1.97;100.00
10652;BME280;5374;42.742;23.266;2023-12-28T04:59:19;96593.72;;;1.92;100.00
10652;BME280;5374;42.742;23.266;2023-12-28T05:02:06;96587.00;;;1.81;100.00
10652;BME280;5374;42.742;23.266;2023-12-28T05:04:53;96597.66;;;1.88;100.00
10652;BME280;5374;42.742;23.266;2023-12-28T05:07:41;96604.50;;;1.97;100.00
10652;BME280;5374;42.742;23.266;2023-12-28T05:10:28;96606.00;;;1.91;100.00
10652;BME280;5374;42.742;23.266;2023-12-28T05:13:16;96596.50;;;1.90;100.00
10652;BME280;5374;42.742;23.266;2023-12-28T05:16:04;96598.47;;;1.88;100.00
10652;BME280;5374;42.742;23.266;2023-12-28T05:18:51;96611.56;;;1.96;100.00
10652;BME280;5374;42.742;23.266;2023-12-28T05:21:38;96602.72;;;1.97;100.00
10652;BME280;5374;42.742;23.266;2023-12-28T05:24:25;96605.66;;;2.02;100.00
10652;BME280;5374;42.742;23.266;2023-12-28T05:27:12;96605.97;;;1.99;100.00
10652;BME280;5374;42.742;23.266;2023-12-28T05:30:01;96604.34;;;1.98;100.00
10652;BME280;5374;42.742;23.266;2023-12-28T05:32:48;96613.19;;;1.97;100.00
10652;BME280;5374;42.742;23.266;2023-12-28T05:35:36;96603.38;;;1.91;100.00
10652;BME280;5374;42.742;23.266;2023-12-28T05:38:23;96612.53;;;1.95;100.00
10652;BME280;5374;42.742;23.266;2023-12-28T05:41:10;96625.97;;;1.92;100.00
10652;BME280;5374;42.742;23.266;2023-12-28T05:43:58;96623.34;;;1.84;100.00
10652;BME280;5374;42.742;23.266;2023-12-28T05:46:46;96628.91;;;1.89;100.00
10652;BME280;5374;42.742;23.266;2023-12-28T05:49:33;96623.03;;;1.71;100.00
10652;BME280;5374;42.742;23.266;2023-12-28T05:52:20;96634.50;;;1.78;100.00
10652;BME280;5374;42.742;23.266;2023-12-28T05:55:08;96636.47;;;1.76;100.00
10652;BME280;5374;42.742;23.266;2023-12-28T05:57:55;96635.81;;;1.74;100.00
10652;BME280;5374;42.742;23.266;2023-12-28T06:00:42;96630.25;;;1.69;100.00
10652;BME280;5374;42.742;23.266;2023-12-28T06:03:31;96634.00;;;1.66;100.00
10652;BME280;5374;42.742;23.266;2023-12-28T06:06:18;96643.00;;;1.72;100.00
10652;BME280;5374;42.742;23.266;2023-12-28T06:09:06;96644.47;;;1.75;100.00
10652;BME280;5374;42.742;23.266;2023-12-28T06:11:53;96623.03;;;1.63;100.00
10652;BME280;5374;42.742;23.266;2023-12-28T06:14:41;96650.22;;;1.78;100.00
10652;BME280;5374;42.742;23.266;2023-12-28T06:17:29;96647.59;;;1.78;100.00
10652;BME280;5374;42.742;23.266;2023-12-28T06:20:17;96644.47;;;1.83;100.00
10652;BME280;5374;42.742;23.266;2023-12-28T06:23:06;96644.28;;;1.84;100.00
10652;BME280;5374;42.742;23.266;2023-12-28T06:25:54;96646.91;;;1.92;100.00
10652;BME280;5374;42.742;23.266;2023-12-28T06:28:42;96641.69;;;1.92;100.00
10652;BME280;5374;42.742;23.266;2023-12-28T06:31:29;96646.09;;;2.00;100.00
10652;BME280;5374;42.742;23.266;2023-12-28T06:34:17;96659.31;;;2.06;100.00
10652;BME280;5374;42.742;23.266;2023-12-28T06:37:06;96615.81;;;1.89;99.95
10652;BME280;5374;42.742;23.266;2023-12-28T06:39:53;96637.72;;;2.13;99.65
10652;BME280;5374;42.742;23.266;2023-12-28T06:42:40;96651.91;;;2.26;99.36
10652;BME280;5374;42.742;23.266;2023-12-28T06:45:29;96651.72;;;2.36;98.63
10652;BME280;5374;42.742;23.266;2023-12-28T06:48:16;96647.97;;;2.38;97.31
10652;BME280;5374;42.742;23.266;2023-12-28T06:51:03;96676.56;;;2.56;96.24
10652;BME280;5374;42.742;23.266;2023-12-28T06:53:52;96662.78;;;2.70;95.19
10652;BME280;5374;42.742;23.266;2023-12-28T06:56:39;96639.50;;;2.67;93.77
10652;BME280;5374;42.742;23.266;2023-12-28T06:59:27;96662.03;;;2.85;92.54
10652;BME280;5374;42.742;23.266;2023-12-28T07:02:14;96662.19;;;2.91;91.92
10652;BME280;5374;42.742;23.266;2023-12-28T07:05:01;96673.44;;;3.00;91.26
10652;BME280;5374;42.742;23.266;2023-12-28T07:07:49;96656.94;;;2.91;89.49
10652;BME280;5374;42.742;23.266;2023-12-28T07:10:40;96639.16;;;3.01;88.20
10652;BME280;5374;42.742;23.266;2023-12-28T07:13:27;96664.84;;;3.14;87.78
10652;BME280;5374;42.742;23.266;2023-12-28T07:16:15;96660.25;;;3.16;89.18
10652;BME280;5374;42.742;23.266;2023-12-28T07:19:02;96666.28;;;3.17;90.09
10652;BME280;5374;42.742;23.266;2023-12-28T07:21:50;96667.47;;;3.14;90.65
10652;BME280;5374;42.742;23.266;2023-12-28T07:24:37;96651.34;;;3.17;91.92
10652;BME280;5374;42.742;23.266;2023-12-28T07:27:26;96639.88;;;3.18;92.36
10652;BME280;5374;42.742;23.266;2023-12-28T07:30:13;96656.44;;;3.41;91.42
10652;BME280;5374;42.742;23.266;2023-12-28T07:33:03;96643.63;;;3.47;91.87
10652;BME280;5374;42.742;23.266;2023-12-28T07:35:50;96668.22;;;3.68;92.38
10652;BME280;5374;42.742;23.266;2023-12-28T07:38:38;96608.09;;;3.59;91.91
10652;BME280;5374;42.742;23.266;2023-12-28T07:41:26;96643.84;;;3.97;90.63
10652;BME280;5374;42.742;23.266;2023-12-28T07:44:14;96665.47;;;4.22;90.33
10652;BME280;5374;42.742;23.266;2023-12-28T07:47:02;96672.00;;;4.26;90.67
10652;BME280;5374;42.742;23.266;2023-12-28T07:49:49;96664.13;;;4.41;89.97
10652;BME280;5374;42.742;23.266;2023-12-28T07:52:36;96652.53;;;4.50;89.23
10652;BME280;5374;42.742;23.266;2023-12-28T07:55:24;96658.13;;;4.62;90.50
10652;BME280;5374;42.742;23.266;2023-12-28T07:58:11;96674.63;;;4.85;91.15
10652;BME280;5374;42.742;23.266;2023-12-28T08:01:00;96667.25;;;5.10;89.92
10652;BME280;5374;42.742;23.266;2023-12-28T08:03:47;96642.09;;;5.07;89.69
10652;BME280;5374;42.742;23.266;2023-12-28T08:06:34;96658.50;;;5.45;89.25
10652;BME280;5374;42.742;23.266;2023-12-28T08:09:21;96659.03;;;5.56;89.48
10652;BME280;5374;42.742;23.266;2023-12-28T08:12:09;96658.66;;;5.59;90.33
10652;BME280;5374;42.742;23.266;2023-12-28T08:14:56;96655.13;;;5.73;89.84
10652;BME280;5374;42.742;23.266;2023-12-28T08:17:44;96645.78;;;5.92;89.29
10652;BME280;5374;42.742;23.266;2023-12-28T08:20:31;96645.34;;;6.09;87.35
10652;BME280;5374;42.742;23.266;2023-12-28T08:23:18;96648.81;;;6.16;87.11
10652;BME280;5374;42.742;23.266;2023-12-28T08:26:05;96645.88;;;6.33;86.29
10652;BME280;5374;42.742;23.266;2023-12-28T08:28:53;96630.72;;;6.41;84.31
10652;BME280;5374;42.742;23.266;2023-12-28T08:31:40;96641.16;;;6.56;83.45
10652;BME280;5374;42.742;23.266;2023-12-28T08:34:29;96619.63;;;6.53;83.24
10652;BME280;5374;42.742;23.266;2023-12-28T08:37:16;96644.13;;;6.81;82.53
10652;BME280;5374;42.742;23.266;2023-12-28T08:40:04;96638.50;;;6.91;82.36
10652;BME280;5374;42.742;23.266;2023-12-28T08:42:51;96637.75;;;7.10;79.58
10652;BME280;5374;42.742;23.266;2023-12-28T08:45:38;96633.69;;;7.14;79.18
10652;BME280;5374;42.742;23.266;2023-12-28T08:48:25;96651.63;;;7.32;79.32
10652;BME280;5374;42.742;23.266;2023-12-28T08:51:14;96631.75;;;7.42;78.54
10652;BME280;5374;42.742;23.266;2023-12-28T08:54:02;96598.38;;;7.28;78.63
10652;BME280;5374;42.742;23.266;2023-12-28T08:56:49;96627.09;;;7.71;77.46
10652;BME280;5374;42.742;23.266;2023-12-28T08:59:36;96546.38;;;7.42;74.85
10652;BME280;5374;42.742;23.266;2023-12-28T09:02:23;96616.75;;;7.96;74.56
10652;BME280;5374;42.742;23.266;2023-12-28T09:05:10;96616.13;;;8.00;75.16
10652;BME280;5374;42.742;23.266;2023-12-28T09:07:59;96611.44;;;7.96;75.52
10652;BME280;5374;42.742;23.266;2023-12-28T09:10:47;96600.06;;;8.02;74.87
10652;BME280;5374;42.742;23.266;2023-12-28T09:13:36;96600.03;;;8.15;75.32
10652;BME280;5374;42.742;23.266;2023-12-28T09:16:23;96596.81;;;8.33;75.82
10652;BME280;5374;42.742;23.266;2023-12-28T09:19:10;96604.91;;;8.38;75.44
10652;BME280;5374;42.742;23.266;2023-12-28T09:21:58;96567.06;;;8.17;75.98
10652;BME280;5374;42.742;23.266;2023-12-28T09:24:47;96594.31;;;8.51;76.37
10652;BME280;5374;42.742;23.266;2023-12-28T09:27:34;96581.28;;;8.49;75.79
10652;BME280;5374;42.742;23.266;2023-12-28T09:30:21;96569.50;;;8.39;76.61
10652;BME280;5374;42.742;23.266;2023-12-28T09:33:08;96570.28;;;8.46;76.64
10652;BME280;5374;42.742;23.266;2023-12-28T09:35:56;96566.22;;;8.50;76.45
10652;BME280;5374;42.742;23.266;2023-12-28T09:38:43;96559.06;;;8.57;75.51
10652;BME280;5374;42.742;23.266;2023-12-28T09:41:36;96543.00;;;8.45;75.50
10652;BME280;5374;42.742;23.266;2023-12-28T09:44:28;96552.34;;;8.54;75.58
10652;BME280;5374;42.742;23.266;2023-12-28T09:47:17;96552.31;;;8.61;75.57
10652;BME280;5374;42.742;23.266;2023-12-28T09:50:05;96545.97;;;8.69;75.62
10652;BME280;5374;42.742;23.266;2023-12-28T09:52:54;96544.06;;;8.82;74.95
10652;BME280;5374;42.742;23.266;2023-12-28T09:55:42;96505.44;;;8.68;74.05
10652;BME280;5374;42.742;23.266;2023-12-28T09:58:33;96530.59;;;8.90;74.54
10652;BME280;5374;42.742;23.266;2023-12-28T10:01:22;96524.66;;;8.95;74.48
10652;BME280;5374;42.742;23.266;2023-12-28T10:04:09;96519.13;;;9.03;74.37
10652;BME280;5374;42.742;23.266;2023-12-28T10:06:56;96504.41;;;9.07;74.23
10652;BME280;5374;42.742;23.266;2023-12-28T10:09:43;96506.16;;;9.20;74.31
10652;BME280;5374;42.742;23.266;2023-12-28T10:12:32;96508.81;;;9.20;73.01
10652;BME280;5374;42.742;23.266;2023-12-28T10:15:21;96500.50;;;9.41;72.01
10652;BME280;5374;42.742;23.266;2023-12-28T10:18:08;96462.09;;;9.25;72.86
10652;BME280;5374;42.742;23.266;2023-12-28T10:20:55;96485.72;;;9.52;72.80
10652;BME280;5374;42.742;23.266;2023-12-28T10:23:42;96484.69;;;9.53;72.38
10652;BME280;5374;42.742;23.266;2023-12-28T10:26:29;96453.38;;;9.43;71.04
10652;BME280;5374;42.742;23.266;2023-12-28T10:29:16;96454.72;;;9.52;70.59
10652;BME280;5374;42.742;23.266;2023-12-28T10:32:05;96448.13;;;9.62;70.73
10652;BME280;5374;42.742;23.266;2023-12-28T10:34:52;96444.88;;;9.59;70.73
10652;BME280;5374;42.742;23.266;2023-12-28T10:37:40;96447.16;;;9.74;70.15
10652;BME280;5374;42.742;23.266;2023-12-28T10:40:28;96440.47;;;9.72;70.52
10652;BME280;5374;42.742;23.266;2023-12-28T10:43:16;96428.53;;;9.81;70.03
10652;BME280;5374;42.742;23.266;2023-12-28T10:46:07;96431.56;;;9.66;70.54
10652;BME280;5374;42.742;23.266;2023-12-28T10:48:59;96425.88;;;9.63;70.38
10652;BME280;5374;42.742;23.266;2023-12-28T10:51:50;96431.03;;;9.76;70.78
10652;BME280;5374;42.742;23.266;2023-12-28T10:54:43;96426.22;;;9.91;69.85
10652;BME280;5374;42.742;23.266;2023-12-28T10:57:35;96415.66;;;10.03;69.37
10652;BME280;5374;42.742;23.266;2023-12-28T11:00:25;96418.09;;;10.04;70.11
10652;BME280;5374;42.742;23.266;2023-12-28T11:03:18;96406.75;;;10.15;69.03
10652;BME280;5374;42.742;23.266;2023-12-28T11:06:11;96399.22;;;10.31;68.45
10652;BME280;5374;42.742;23.266;2023-12-28T11:08:59;96392.22;;;10.36;67.11
10652;BME280;5374;42.742;23.266;2023-12-28T11:11:49;96384.84;;;10.20;67.42
10652;BME280;5374;42.742;23.266;2023-12-28T11:14:39;96356.88;;;10.17;67.86
10652;BME280;5374;42.742;23.266;2023-12-28T11:17:27;96378.81;;;10.43;67.80
10652;BME280;5374;42.742;23.266;2023-12-28T11:20:15;96343.25;;;10.32;68.15
10652;BME280;5374;42.742;23.266;2023-12-28T11:23:05;96370.94;;;10.66;67.24
10652;BME280;5374;42.742;23.266;2023-12-28T11:25:53;96368.19;;;10.73;66.49
10652;BME280;5374;42.742;23.266;2023-12-28T11:28:40;96357.34;;;10.74;66.27
10652;BME280;5374;42.742;23.266;2023-12-28T11:31:27;96347.66;;;10.91;65.92
10652;BME280;5374;42.742;23.266;2023-12-28T11:34:14;96343.88;;;10.99;65.02
10652;BME280;5374;42.742;23.266;2023-12-28T11:37:06;96342.72;;;11.18;64.46
10652;BME280;5374;42.742;23.266;2023-12-28T11:39:55;96332.78;;;11.25;63.80
10652;BME280;5374;42.742;23.266;2023-12-28T11:42:50;96321.22;;;11.31;63.40
10652;BME280;5374;42.742;23.266;2023-12-28T11:45:37;96332.78;;;11.37;63.31
10652;BME280;5374;42.742;23.266;2023-12-28T11:48:25;96322.25;;;11.42;63.74
10652;BME280;5374;42.742;23.266;2023-12-28T11:51:13;96321.09;;;11.50;63.40
10652;BME280;5374;42.742;23.266;2023-12-28T11:54:00;96312.16;;;11.56;63.54
10652;BME280;5374;42.742;23.266;2023-12-28T11:56:50;96317.03;;;11.59;62.90
10652;BME280;5374;42.742;23.266;2023-12-28T11:59:38;96314.25;;;11.65;63.19
10652;BME280;5374;42.742;23.266;2023-12-28T12:02:26;96300.69;;;11.67;63.02
10652;BME280;5374;42.742;23.266;2023-12-28T12:05:14;96316.44;;;11.80;62.66
10652;BME280;5374;42.742;23.266;2023-12-28T12:08:01;96312.94;;;11.91;61.49
10652;BME280;5374;42.742;23.266;2023-12-28T12:10:59;96304.78;;;11.98;61.62
10652;BME280;5374;42.742;23.266;2023-12-28T12:13:50;96292.84;;;12.12;60.81
10652;BME280;5374;42.742;23.266;2023-12-28T12:16:37;96290.69;;;11.97;60.65
10652;BME280;5374;42.742;23.266;2023-12-28T12:19:25;96290.06;;;12.07;60.55
10652;BME280;5374;42.742;23.266;2023-12-28T12:22:12;96289.59;;;12.10;60.73
10652;BME280;5374;42.742;23.266;2023-12-28T12:25:02;96289.69;;;12.15;60.31
10652;BME280;5374;42.742;23.266;2023-12-28T12:27:51;96298.41;;;12.11;60.60
10652;BME280;5374;42.742;23.266;2023-12-28T12:30:39;96300.16;;;12.05;60.44
10652;BME280;5374;42.742;23.266;2023-12-28T12:33:27;96298.53;;;12.04;60.88
10652;BME280;5374;42.742;23.266;2023-12-28T12:36:14;96289.91;;;11.97;60.96
10652;BME280;5374;42.742;23.266;2023-12-28T12:39:01;96306.75;;;12.03;60.35
10652;BME280;5374;42.742;23.266;2023-12-28T12:41:50;96300.84;;;12.01;60.66
10652;BME280;5374;42.742;23.266;2023-12-28T12:44:39;96292.63;;;12.02;60.66
10652;BME280;5374;42.742;23.266;2023-12-28T12:47:32;96293.53;;;12.08;59.95
10652;BME280;5374;42.742;23.266;2023-12-28T12:50:20;96281.34;;;11.95;59.87
10652;BME280;5374;42.742;23.266;2023-12-28T12:53:08;96276.09;;;12.00;59.53
10652;BME280;5374;42.742;23.266;2023-12-28T12:55:55;96286.94;;;12.10;59.57
10652;BME280;5374;42.742;23.266;2023-12-28T12:58:42;96274.81;;;12.03;59.79
10652;BME280;5374;42.742;23.266;2023-12-28T13:01:29;96274.91;;;12.08;59.76
10652;BME280;5374;42.742;23.266;2023-12-28T13:04:18;96270.16;;;12.10;60.18
10652;BME280;5374;42.742;23.266;2023-12-28T13:07:05;96268.47;;;12.20;60.09
10652;BME280;5374;42.742;23.266;2023-12-28T13:09:52;96267.75;;;12.25;59.54
10652;BME280;5374;42.742;23.266;2023-12-28T13:12:39;96240.53;;;12.06;59.81
10652;BME280;5374;42.742;23.266;2023-12-28T13:15:26;96255.97;;;12.21;59.47
10652;BME280;5374;42.742;23.266;2023-12-28T13:18:14;96254.69;;;12.23;59.24
10652;BME280;5374;42.742;23.266;2023-12-28T13:21:02;96259.28;;;12.28;58.93
10652;BME280;5374;42.742;23.266;2023-12-28T13:23:50;96256.78;;;12.21;58.60
10652;BME280;5374;42.742;23.266;2023-12-28T13:26:37;96265.50;;;12.17;58.83
10652;BME280;5374;42.742;23.266;2023-12-28T13:29:24;96251.75;;;12.08;59.04
10652;BME280;5374;42.742;23.266;2023-12-28T13:32:11;96252.56;;;12.09;59.52
10652;BME280;5374;42.742;23.266;2023-12-28T13:34:58;96247.78;;;11.94;59.83
10652;BME280;5374;42.742;23.266;2023-12-28T13:37:47;96262.38;;;11.91;59.64
10652;BME280;5374;42.742;23.266;2023-12-28T13:40:34;96266.41;;;11.94;59.79
10652;BME280;5374;42.742;23.266;2023-12-28T13:43:21;96275.00;;;11.84;59.83
10652;BME280;5374;42.742;23.266;2023-12-28T13:46:08;96278.69;;;11.83;59.70
10652;BME280;5374;42.742;23.266;2023-12-28T13:48:55;96272.34;;;11.84;60.07
10652;BME280;5374;42.742;23.266;2023-12-28T13:51:42;96263.78;;;11.82;59.82
10652;BME280;5374;42.742;23.266;2023-12-28T13:54:31;96258.81;;;11.74;59.74
10652;BME280;5374;42.742;23.266;2023-12-28T13:57:19;96272.13;;;11.74;59.78
10652;BME280;5374;42.742;23.266;2023-12-28T14:00:08;96263.78;;;11.71;60.09
10652;BME280;5374;42.742;23.266;2023-12-28T14:02:56;96264.38;;;11.73;59.96
10652;BME280;5374;42.742;23.266;2023-12-28T14:05:44;96269.69;;;11.73;59.76
10652;BME280;5374;42.742;23.266;2023-12-28T14:08:32;96259.41;;;11.64;60.21
10652;BME280;5374;42.742;23.266;2023-12-28T14:11:20;96256.53;;;11.66;60.29
10652;BME280;5374;42.742;23.266;2023-12-28T14:14:07;96250.84;;;11.62;59.60
10652;BME280;5374;42.742;23.266;2023-12-28T14:16:55;96257.09;;;11.56;59.69
10652;BME280;5374;42.742;23.266;2023-12-28T14:19:42;96250.63;;;11.52;59.75
10652;BME280;5374;42.742;23.266;2023-12-28T14:22:29;96230.22;;;11.41;60.05
10652;BME280;5374;42.742;23.266;2023-12-28T14:25:17;96241.06;;;11.51;60.03
10652;BME280;5374;42.742;23.266;2023-12-28T14:28:07;96248.03;;;11.81;60.36
10652;BME280;5374;42.742;23.266;2023-12-28T14:30:56;96244.94;;;12.01;58.42
10652;BME280;5374;42.742;23.266;2023-12-28T14:33:43;96232.03;;;11.92;58.16
10652;BME280;5374;42.742;23.266;2023-12-28T14:40:34;96243.31;;;11.71;58.95
10652;BME280;5374;42.742;23.266;2023-12-28T14:43:36;96248.78;;;11.53;59.44
10652;BME280;5374;42.742;23.266;2023-12-28T14:46:24;96244.22;;;11.37;60.21
10652;BME280;5374;42.742;23.266;2023-12-28T14:49:11;96238.22;;;11.18;60.64
10652;BME280;5374;42.742;23.266;2023-12-28T14:51:58;96243.44;;;11.13;61.35
10652;BME280;5374;42.742;23.266;2023-12-28T14:54:45;96242.88;;;10.99;62.19
10652;BME280;5374;42.742;23.266;2023-12-28T14:57:32;96241.72;;;10.83;62.61